createdAt,value
2023-01-17T00:05:17.222Z,6.48
2023-01-17T00:10:24.649Z,6.67
2023-01-17T00:15:32.329Z,6.93
2023-01-17T00:20:54.966Z,7.09
2023-01-17T00:26:05.429Z,6.87
2023-01-17T00:31:11.575Z,7.17
2023-01-17T00:36:15.076Z,6.48
2023-01-17T00:41:19.331Z,6.46
2023-01-17T00:46:42.812Z,6.66
2023-01-17T00:52:04.802Z,6.30
2023-01-17T00:57:27.147Z,6.58
2023-01-17T01:02:50.705Z,6.61
2023-01-17T01:08:12.785Z,6.20
2023-01-17T01:13:34.619Z,6.06
2023-01-17T01:18:58.937Z,6.40
2023-01-17T01:24:20.720Z,6.49
2023-01-17T01:29:42.961Z,6.58
2023-01-17T01:34:49.001Z,6.19
2023-01-17T01:39:53.550Z,6.49
2023-01-17T01:44:58.157Z,6.52
2023-01-17T01:50:08.672Z,6.61
2023-01-17T01:55:17.430Z,6.30
2023-01-17T02:00:29.351Z,6.36
2023-01-17T02:05:36.836Z,6.65
2023-01-17T02:10:44.094Z,6.63
2023-01-17T02:16:00.470Z,6.79
2023-01-17T02:21:24.960Z,6.95
2023-01-17T02:26:55.887Z,6.74
2023-01-17T02:32:09.640Z,7.00
2023-01-17T02:37:20.148Z,6.69
2023-01-17T02:42:28.195Z,5.99
2023-01-17T02:47:34.181Z,6.69
2023-01-17T02:53:02.407Z,6.28
2023-01-17T02:58:20.937Z,6.72
2023-01-17T03:03:34.440Z,7.26
2023-01-17T03:08:41.417Z,7.05
2023-01-17T03:13:45.896Z,6.46
2023-01-17T03:18:53.984Z,6.47
2023-01-17T03:23:58.565Z,6.17
2023-01-17T03:29:03.709Z,5.95
2023-01-17T03:34:09.707Z,6.04
2023-01-17T03:39:14.361Z,5.52
2023-01-17T03:44:18.832Z,5.63
2023-01-17T03:49:24.837Z,5.72
2023-01-17T03:54:28.956Z,5.69
2023-01-17T03:59:34.174Z,5.54
2023-01-17T04:04:40.807Z,5.33
2023-01-17T04:09:47.938Z,5.79
2023-01-17T04:14:55.544Z,5.88
2023-01-17T04:20:04.947Z,5.11
2023-01-17T04:25:11.700Z,5.48
2023-01-17T04:30:19.154Z,5.41
2023-01-17T04:35:29.013Z,5.46
2023-01-17T04:40:36.584Z,5.14
2023-01-17T04:45:44.448Z,5.50
2023-01-17T04:50:53.239Z,5.69
2023-01-17T04:56:00.983Z,5.64
2023-01-17T05:01:10.866Z,5.73
2023-01-17T05:06:20.048Z,5.79
2023-01-17T05:11:29.458Z,5.58
2023-01-17T05:16:37.269Z,5.26
2023-01-17T05:21:46.421Z,5.31
2023-01-17T05:26:55.319Z,5.60
2023-01-17T05:32:03.345Z,5.73
2023-01-17T05:37:12.499Z,5.33
2023-01-17T05:42:20.563Z,5.98
2023-01-17T05:47:28.440Z,5.75
2023-01-17T05:52:37.482Z,5.53
2023-01-17T05:57:46.200Z,5.49
2023-01-17T06:02:57.104Z,5.82
2023-01-17T06:08:07.460Z,5.59
2023-01-17T06:13:21.320Z,6.20
2023-01-17T06:18:28.696Z,5.89
2023-01-17T06:23:37.619Z,5.75
2023-01-17T06:28:44.023Z,6.19
2023-01-17T06:33:51.269Z,6.80
2023-01-17T06:39:00.474Z,7.27
2023-01-17T06:44:09.586Z,6.84
2023-01-17T06:49:17.517Z,6.89
2023-01-17T06:54:26.472Z,7.35
2023-01-17T06:59:35.776Z,7.94
2023-01-17T07:04:42.937Z,8.10
2023-01-17T07:09:52.154Z,7.63
2023-01-17T07:14:59.759Z,7.70
2023-01-17T07:20:07.285Z,7.35
2023-01-17T07:25:14.688Z,7.63
2023-01-17T07:30:22.924Z,7.73
2023-01-17T07:35:30.085Z,8.58
2023-01-17T07:40:42.213Z,8.73
2023-01-17T07:45:52.345Z,7.87
2023-01-17T07:51:00.761Z,8.18
2023-01-17T07:56:10.840Z,8.91
2023-01-17T08:01:19.630Z,8.58
2023-01-17T08:06:29.820Z,8.61
2023-01-17T08:11:38.412Z,8.71
2023-01-17T08:16:45.017Z,8.44
2023-01-17T08:21:51.452Z,8.47
2023-01-17T08:26:59.073Z,8.59
2023-01-17T08:32:05.372Z,8.38
2023-01-17T08:37:13.003Z,8.42
2023-01-17T08:42:21.655Z,8.49
2023-01-17T08:47:29.315Z,7.79
2023-01-17T08:52:36.774Z,7.24
2023-01-17T08:57:44.408Z,6.79
2023-01-17T09:03:05.179Z,6.42
2023-01-17T09:08:14.268Z,6.29
2023-01-17T09:13:21.668Z,6.06
2023-01-17T09:18:28.914Z,6.08
2023-01-17T09:23:34.552Z,5.97
2023-01-17T09:28:43.299Z,6.10
2023-01-17T09:33:48.947Z,6.38
2023-01-17T09:39:00.141Z,6.36
2023-01-17T09:44:19.551Z,6.39
2023-01-17T09:49:45.567Z,6.54
2023-01-17T09:54:52.956Z,7.43
2023-01-17T10:00:13.541Z,7.79
2023-01-17T10:05:40.609Z,7.33
2023-01-17T10:10:57.969Z,7.21
2023-01-17T10:16:22.113Z,6.85
2023-01-17T10:21:42.282Z,6.81
2023-01-17T10:26:52.267Z,6.65
2023-01-17T10:32:02.588Z,6.27
2023-01-17T10:37:26.361Z,6.06
2023-01-17T10:42:51.186Z,5.89
2023-01-17T10:48:05.170Z,7.08
2023-01-17T10:53:22.543Z,6.96
2023-01-17T10:58:28.248Z,5.87
2023-01-17T11:03:35.915Z,6.65
2023-01-17T11:08:53.799Z,6.46
2023-01-17T11:14:03.619Z,5.99
2023-01-17T11:19:19.569Z,5.74
2023-01-17T11:24:35.876Z,6.12
2023-01-17T11:29:43.798Z,6.03
2023-01-17T11:35:08.525Z,5.75
2023-01-17T11:40:26.096Z,5.75
2023-01-17T11:45:35.681Z,5.52
2023-01-17T11:50:48.033Z,4.96
2023-01-17T11:55:57.341Z,5.06
2023-01-17T12:01:19.224Z,4.77
2023-01-17T12:06:51.710Z,5.22
2023-01-17T12:12:30.745Z,5.60
2023-01-17T12:17:55.913Z,4.61
2023-01-17T12:23:22.570Z,4.98
2023-01-17T12:28:55.835Z,4.50
2023-01-17T12:34:19.793Z,4.71
2023-01-17T12:39:32.484Z,4.65
2023-01-17T12:44:53.009Z,4.26
2023-01-17T12:50:09.178Z,4.58
2023-01-17T12:55:22.555Z,5.00
2023-01-17T13:00:32.527Z,5.22
2023-01-17T13:05:42.416Z,5.28
2023-01-17T13:10:54.654Z,5.28
2023-01-17T13:16:07.550Z,6.11
2023-01-17T13:21:30.730Z,7.27
2023-01-17T13:26:54.777Z,7.72
2023-01-17T13:32:12.691Z,8.53
2023-01-17T13:37:42.804Z,9.86
2023-01-17T13:42:59.197Z,10.13
2023-01-17T13:48:30.991Z,10.84
2023-01-17T13:53:59.227Z,10.77
2023-01-17T13:59:31.300Z,11.49
2023-01-17T14:05:11.771Z,11.35
2023-01-17T14:10:39.462Z,10.44
2023-01-17T14:15:53.511Z,9.95
2023-01-17T14:21:14.817Z,9.34
2023-01-17T14:26:37.310Z,9.47
2023-01-17T14:31:44.950Z,9.71
2023-01-17T14:36:52.095Z,8.86
2023-01-17T14:41:59.943Z,8.22
2023-01-17T14:47:08.894Z,7.78
2023-01-17T14:52:20.037Z,7.32
2023-01-17T14:57:28.870Z,6.14
2023-01-17T15:02:35.339Z,5.88
2023-01-17T15:07:41.788Z,5.75
2023-01-17T15:12:47.891Z,5.31
2023-01-17T15:18:08.705Z,6.11
2023-01-17T15:23:18.351Z,5.52
2023-01-17T15:28:24.210Z,5.53
2023-01-17T15:33:36.032Z,5.32
2023-01-17T15:38:54.075Z,5.42
2023-01-17T15:43:58.995Z,5.00
2023-01-17T15:49:17.985Z,4.40
2023-01-17T15:54:37.869Z,4.36
2023-01-17T15:59:46.736Z,4.74
2023-01-17T16:04:52.735Z,5.23
2023-01-17T16:10:06.695Z,4.80
2023-01-17T16:15:13.395Z,5.61
2023-01-17T16:20:23.017Z,5.69
2023-01-17T16:25:32.434Z,5.13
2023-01-17T16:30:37.723Z,5.03
2023-01-17T16:35:44.236Z,5.50
2023-01-17T16:40:49.608Z,5.05
2023-01-17T16:45:55.764Z,5.35
2023-01-17T16:51:07.043Z,4.76
2023-01-17T16:56:14.613Z,5.02
2023-01-17T17:01:21.357Z,5.36
2023-01-17T17:06:27.694Z,5.41
2023-01-17T17:11:32.170Z,5.64
2023-01-17T17:16:36.985Z,5.88
2023-01-17T17:21:42.899Z,5.82
2023-01-17T17:26:47.399Z,5.73
2023-01-17T17:31:52.103Z,5.92
2023-01-17T17:36:57.951Z,5.73
2023-01-17T17:42:02.548Z,4.71
2023-01-17T17:47:06.995Z,5.77
2023-01-17T17:52:12.842Z,6.38
2023-01-17T17:57:17.342Z,4.77
2023-01-17T18:02:21.821Z,5.25
2023-01-17T18:07:28.236Z,5.76
2023-01-17T18:12:32.892Z,5.74
2023-01-17T18:17:37.400Z,5.63
2023-01-17T18:22:43.486Z,5.04
2023-01-17T18:27:47.566Z,4.48
2023-01-17T18:32:52.053Z,5.58
2023-01-17T18:38:00.222Z,5.86
2023-01-17T18:43:04.809Z,5.99
2023-01-17T18:48:09.183Z,6.43
2023-01-17T18:53:15.053Z,6.70
2023-01-17T18:58:19.163Z,6.82
2023-01-17T19:03:29.003Z,6.50
2023-01-17T19:08:36.265Z,6.94
2023-01-17T19:13:42.003Z,6.83
2023-01-17T19:18:46.381Z,6.59
2023-01-17T19:23:52.611Z,6.97
2023-01-17T19:28:58.876Z,7.01
2023-01-17T19:34:05.752Z,7.35
2023-01-17T19:39:11.807Z,7.67
2023-01-17T19:44:16.799Z,7.21
2023-01-17T19:49:24.752Z,6.99
2023-01-17T19:54:30.663Z,7.66
2023-01-17T19:59:35.159Z,7.51
2023-01-17T20:04:39.554Z,6.88
2023-01-17T20:09:45.448Z,7.28
2023-01-17T20:14:49.945Z,6.29
2023-01-17T20:19:54.504Z,5.45
2023-01-17T20:25:00.704Z,6.58
2023-01-17T20:30:19.288Z,5.49
2023-01-17T20:35:24.696Z,4.54
2023-01-17T20:40:30.552Z,4.95
2023-01-17T20:45:35.512Z,6.10
2023-01-17T20:50:40.122Z,5.41
2023-01-17T20:55:46.183Z,5.78
2023-01-17T21:00:52.519Z,5.65
2023-01-17T21:06:02.844Z,5.79
2023-01-17T21:11:10.400Z,5.75
2023-01-17T21:16:16.479Z,5.68
2023-01-17T21:21:23.119Z,5.97
2023-01-17T21:26:30.366Z,5.99
2023-01-17T21:31:36.821Z,5.85
2023-01-17T21:36:43.359Z,5.48
2023-01-17T21:41:51.008Z,4.95
2023-01-17T21:46:56.566Z,5.36
2023-01-17T21:52:18.090Z,5.58
2023-01-17T21:57:41.892Z,5.78
2023-01-17T22:02:47.183Z,4.21
2023-01-17T22:08:12.603Z,4.68
2023-01-17T22:13:19.808Z,4.38
2023-01-17T22:18:24.136Z,4.20
2023-01-17T22:23:28.524Z,5.17
2023-01-17T22:28:35.114Z,4.45
2023-01-17T22:33:40.675Z,4.59
2023-01-17T22:38:45.832Z,4.03
2023-01-17T22:43:54.423Z,3.59
2023-01-17T22:49:00.144Z,4.28
2023-01-17T22:54:04.473Z,3.81
2023-01-17T22:59:12.943Z,3.87
2023-01-17T23:04:19.800Z,3.83
2023-01-17T23:09:24.367Z,3.76
2023-01-17T23:14:49.707Z,3.41
2023-01-17T23:19:55.700Z,3.37
2023-01-17T23:25:02.398Z,3.52
2023-01-17T23:30:11.268Z,3.54
2023-01-17T23:35:16.615Z,3.49
2023-01-17T23:40:21.187Z,3.14
2023-01-17T23:45:27.311Z,3.12
2023-01-17T23:50:31.716Z,2.80
2023-01-17T23:55:37.861Z,2.63
